sensor_id;sensor_type;location;lat;lon;timestamp;P1;P2;P0
71858;PMS5003;59713;50.866;4.324;2023-04-24T00:00:44;21;21;
71858;PMS5003;59713;50.866;4.324;2023-04-24T00:01:44;17;16;
71858;PMS5003;59713;50.866;4.324;2023-04-24T00:02:44;17;16;
71858;PMS5003;59713;50.866;4.324;2023-04-24T00:02:44;17;16;
71858;PMS5003;59713;50.866;4.324;2023-04-24T00:03:44;17;16;
71858;PMS5003;59713;50.866;4.324;2023-04-24T00:04:44;21;19;
71858;PMS5003;59713;50.866;4.324;2023-04-24T00:05:44;21;19;
71858;PMS5003;59713;50.866;4.324;2023-04-24T00:06:44;21;19;
71858;PMS5003;59713;50.866;4.324;2023-04-24T00:07:44;19;18;
71858;PMS5003;59713;50.866;4.324;2023-04-24T00:08:44;19;18;
71858;PMS5003;59713;50.866;4.324;2023-04-24T00:09:44;19;18;
71858;PMS5003;59713;50.866;4.324;2023-04-24T00:10:44;26;20;
71858;PMS5003;59713;50.866;4.324;2023-04-24T00:11:44;26;20;
71858;PMS5003;59713;50.866;4.324;2023-04-24T00:12:44;26;20;
71858;PMS5003;59713;50.866;4.324;2023-04-24T00:12:44;26;20;
71858;PMS5003;59713;50.866;4.324;2023-04-24T00:13:44;26;18;
71858;PMS5003;59713;50.866;4.324;2023-04-24T00:14:44;26;18;
71858;PMS5003;59713;50.866;4.324;2023-04-24T00:15:44;26;18;
71858;PMS5003;59713;50.866;4.324;2023-04-24T00:16:44;19;18;
71858;PMS5003;59713;50.866;4.324;2023-04-24T00:17:44;19;18;
71858;PMS5003;59713;50.866;4.324;2023-04-24T00:18:44;19;18;
71858;PMS5003;59713;50.866;4.324;2023-04-24T00:19:44;19;18;
71858;PMS5003;59713;50.866;4.324;2023-04-24T00:20:44;19;18;
71858;PMS5003;59713;50.866;4.324;2023-04-24T00:21:44;19;18;
71858;PMS5003;59713;50.866;4.324;2023-04-24T00:21:44;19;18;
71858;PMS5003;59713;50.866;4.324;2023-04-24T00:22:44;23;22;
71858;PMS5003;59713;50.866;4.324;2023-04-24T00:23:44;23;22;
71858;PMS5003;59713;50.866;4.324;2023-04-24T00:24:44;23;22;
71858;PMS5003;59713;50.866;4.324;2023-04-24T00:25:44;21;20;
71858;PMS5003;59713;50.866;4.324;2023-04-24T00:26:44;21;20;
71858;PMS5003;59713;50.866;4.324;2023-04-24T00:27:44;21;20;
71858;PMS5003;59713;50.866;4.324;2023-04-24T00:28:44;13;13;
71858;PMS5003;59713;50.866;4.324;2023-04-24T00:29:44;13;13;
71858;PMS5003;59713;50.866;4.324;2023-04-24T00:30:44;13;13;
71858;PMS5003;59713;50.866;4.324;2023-04-24T00:30:44;13;13;
71858;PMS5003;59713;50.866;4.324;2023-04-24T00:31:44;22;18;
71858;PMS5003;59713;50.866;4.324;2023-04-24T00:32:44;22;18;
71858;PMS5003;59713;50.866;4.324;2023-04-24T00:33:44;22;18;
71858;PMS5003;59713;50.866;4.324;2023-04-24T00:34:44;23;21;
71858;PMS5003;59713;50.866;4.324;2023-04-24T00:35:44;23;21;
71858;PMS5003;59713;50.866;4.324;2023-04-24T00:36:44;23;21;
71858;PMS5003;59713;50.866;4.324;2023-04-24T00:37:44;20;20;
71858;PMS5003;59713;50.866;4.324;2023-04-24T00:38:44;20;20;
71858;PMS5003;59713;50.866;4.324;2023-04-24T00:39:44;20;20;
71858;PMS5003;59713;50.866;4.324;2023-04-24T00:39:44;20;20;
71858;PMS5003;59713;50.866;4.324;2023-04-24T00:40:44;22;21;
71858;PMS5003;59713;50.866;4.324;2023-04-24T00:41:44;22;21;
71858;PMS5003;59713;50.866;4.324;2023-04-24T00:42:44;22;21;
71858;PMS5003;59713;50.866;4.324;2023-04-24T00:43:44;20;19;
71858;PMS5003;59713;50.866;4.324;2023-04-24T00:44:44;20;19;
71858;PMS5003;59713;50.866;4.324;2023-04-24T00:45:44;20;19;
71858;PMS5003;59713;50.866;4.324;2023-04-24T00:46:44;23;21;
71858;PMS5003;59713;50.866;4.324;2023-04-24T00:47:44;23;21;
71858;PMS5003;59713;50.866;4.324;2023-04-24T00:48:44;23;21;
71858;PMS5003;59713;50.866;4.324;2023-04-24T00:48:44;23;21;
71858;PMS5003;59713;50.866;4.324;2023-04-24T00:49:44;20;17;
71858;PMS5003;59713;50.866;4.324;2023-04-24T00:50:44;20;17;
71858;PMS5003;59713;50.866;4.324;2023-04-24T00:51:44;20;17;
71858;PMS5003;59713;50.866;4.324;2023-04-24T00:52:44;24;22;
71858;PMS5003;59713;50.866;4.324;2023-04-24T00:53:44;24;22;
71858;PMS5003;59713;50.866;4.324;2023-04-24T00:54:44;24;22;
71858;PMS5003;59713;50.866;4.324;2023-04-24T00:55:44;23;22;
71858;PMS5003;59713;50.866;4.324;2023-04-24T00:56:44;23;22;
71858;PMS5003;59713;50.866;4.324;2023-04-24T00:57:44;23;22;
71858;PMS5003;59713;50.866;4.324;2023-04-24T00:57:44;23;22;
71858;PMS5003;59713;50.866;4.324;2023-04-24T00:58:44;26;22;
71858;PMS5003;59713;50.866;4.324;2023-04-24T00:59:44;26;22;
71858;PMS5003;59713;50.866;4.324;2023-04-24T01:00:44;26;22;
71858;PMS5003;59713;50.866;4.324;2023-04-24T01:01:44;17;16;
71858;PMS5003;59713;50.866;4.324;2023-04-24T01:02:44;17;16;
71858;PMS5003;59713;50.866;4.324;2023-04-24T01:03:45;17;16;
71858;PMS5003;59713;50.866;4.324;2023-04-24T01:04:44;22;19;
71858;PMS5003;59713;50.866;4.324;2023-04-24T01:05:44;22;19;
71858;PMS5003;59713;50.866;4.324;2023-04-24T01:06:44;22;19;
71858;PMS5003;59713;50.866;4.324;2023-04-24T01:06:44;22;19;
71858;PMS5003;59713;50.866;4.324;2023-04-24T01:07:44;21;18;
71858;PMS5003;59713;50.866;4.324;2023-04-24T01:08:44;21;18;
71858;PMS5003;59713;50.866;4.324;2023-04-24T01:09:44;21;18;
71858;PMS5003;59713;50.866;4.324;2023-04-24T01:10:44;22;18;
71858;PMS5003;59713;50.866;4.324;2023-04-24T01:11:44;22;18;
71858;PMS5003;59713;50.866;4.324;2023-04-24T01:12:44;22;18;
71858;PMS5003;59713;50.866;4.324;2023-04-24T01:13:46;19;19;
71858;PMS5003;59713;50.866;4.324;2023-04-24T01:14:44;19;19;
71858;PMS5003;59713;50.866;4.324;2023-04-24T01:15:44;19;19;
71858;PMS5003;59713;50.866;4.324;2023-04-24T01:15:44;19;19;
71858;PMS5003;59713;50.866;4.324;2023-04-24T01:16:44;20;18;
71858;PMS5003;59713;50.866;4.324;2023-04-24T01:17:44;20;18;
71858;PMS5003;59713;50.866;4.324;2023-04-24T01:18:44;20;18;
71858;PMS5003;59713;50.866;4.324;2023-04-24T01:19:44;17;17;
71858;PMS5003;59713;50.866;4.324;2023-04-24T01:20:44;17;17;
71858;PMS5003;59713;50.866;4.324;2023-04-24T01:21:44;17;17;
71858;PMS5003;59713;50.866;4.324;2023-04-24T01:22:44;24;23;
71858;PMS5003;59713;50.866;4.324;2023-04-24T01:23:44;24;23;
71858;PMS5003;59713;50.866;4.324;2023-04-24T01:24:44;24;23;
71858;PMS5003;59713;50.866;4.324;2023-04-24T01:24:44;24;23;
71858;PMS5003;59713;50.866;4.324;2023-04-24T01:25:44;22;20;
71858;PMS5003;59713;50.866;4.324;2023-04-24T01:26:44;22;20;
71858;PMS5003;59713;50.866;4.324;2023-04-24T01:27:44;22;20;
71858;PMS5003;59713;50.866;4.324;2023-04-24T01:28:44;16;15;
71858;PMS5003;59713;50.866;4.324;2023-04-24T01:29:44;16;15;
71858;PMS5003;59713;50.866;4.324;2023-04-24T01:30:44;16;15;
71858;PMS5003;59713;50.866;4.324;2023-04-24T01:31:44;15;15;
71858;PMS5003;59713;50.866;4.324;2023-04-24T01:32:44;15;15;
71858;PMS5003;59713;50.866;4.324;2023-04-24T01:33:44;15;15;
71858;PMS5003;59713;50.866;4.324;2023-04-24T01:34:44;21;16;
71858;PMS5003;59713;50.866;4.324;2023-04-24T01:34:44;21;16;
71858;PMS5003;59713;50.866;4.324;2023-04-24T01:35:44;21;16;
71858;PMS5003;59713;50.866;4.324;2023-04-24T01:36:45;21;16;
71858;PMS5003;59713;50.866;4.324;2023-04-24T01:37:44;19;17;
71858;PMS5003;59713;50.866;4.324;2023-04-24T01:38:44;19;17;
71858;PMS5003;59713;50.866;4.324;2023-04-24T01:39:44;19;17;
71858;PMS5003;59713;50.866;4.324;2023-04-24T01:40:44;22;18;
71858;PMS5003;59713;50.866;4.324;2023-04-24T01:41:44;22;18;
71858;PMS5003;59713;50.866;4.324;2023-04-24T01:42:44;22;18;
71858;PMS5003;59713;50.866;4.324;2023-04-24T01:43:44;22;19;
71858;PMS5003;59713;50.866;4.324;2023-04-24T01:43:44;22;19;
71858;PMS5003;59713;50.866;4.324;2023-04-24T01:44:44;22;19;
71858;PMS5003;59713;50.866;4.324;2023-04-24T01:45:44;22;19;
71858;PMS5003;59713;50.866;4.324;2023-04-24T01:46:44;21;16;
71858;PMS5003;59713;50.866;4.324;2023-04-24T01:47:44;21;16;
71858;PMS5003;59713;50.866;4.324;2023-04-24T01:48:44;21;16;
71858;PMS5003;59713;50.866;4.324;2023-04-24T01:49:44;21;16;
71858;PMS5003;59713;50.866;4.324;2023-04-24T01:50:44;21;16;
71858;PMS5003;59713;50.866;4.324;2023-04-24T01:51:44;21;16;
71858;PMS5003;59713;50.866;4.324;2023-04-24T01:52:44;15;13;
71858;PMS5003;59713;50.866;4.324;2023-04-24T01:52:44;15;13;
71858;PMS5003;59713;50.866;4.324;2023-04-24T01:53:44;15;13;
71858;PMS5003;59713;50.866;4.324;2023-04-24T01:54:44;15;13;
71858;PMS5003;59713;50.866;4.324;2023-04-24T01:55:44;20;19;
71858;PMS5003;59713;50.866;4.324;2023-04-24T01:56:44;20;19;
71858;PMS5003;59713;50.866;4.324;2023-04-24T01:57:44;20;19;
71858;PMS5003;59713;50.866;4.324;2023-04-24T01:58:44;19;16;
71858;PMS5003;59713;50.866;4.324;2023-04-24T01:59:44;19;16;
71858;PMS5003;59713;50.866;4.324;2023-04-24T02:00:44;19;16;
71858;PMS5003;59713;50.866;4.324;2023-04-24T02:01:44;16;15;
71858;PMS5003;59713;50.866;4.324;2023-04-24T02:01:44;16;15;
71858;PMS5003;59713;50.866;4.324;2023-04-24T02:02:44;16;15;
71858;PMS5003;59713;50.866;4.324;2023-04-24T02:03:44;16;15;
71858;PMS5003;59713;50.866;4.324;2023-04-24T02:04:44;14;12;
71858;PMS5003;59713;50.866;4.324;2023-04-24T02:05:44;14;12;
71858;PMS5003;59713;50.866;4.324;2023-04-24T02:06:44;14;12;
71858;PMS5003;59713;50.866;4.324;2023-04-24T02:07:44;17;16;
71858;PMS5003;59713;50.866;4.324;2023-04-24T02:08:44;17;16;
71858;PMS5003;59713;50.866;4.324;2023-04-24T02:09:44;17;16;
71858;PMS5003;59713;50.866;4.324;2023-04-24T02:10:44;14;13;
71858;PMS5003;59713;50.866;4.324;2023-04-24T02:10:44;14;13;
71858;PMS5003;59713;50.866;4.324;2023-04-24T02:11:44;14;13;
71858;PMS5003;59713;50.866;4.324;2023-04-24T02:12:44;14;13;
71858;PMS5003;59713;50.866;4.324;2023-04-24T02:13:44;20;20;
71858;PMS5003;59713;50.866;4.324;2023-04-24T02:14:44;20;20;
71858;PMS5003;59713;50.866;4.324;2023-04-24T02:15:44;20;20;
71858;PMS5003;59713;50.866;4.324;2023-04-24T02:16:44;14;14;
71858;PMS5003;59713;50.866;4.324;2023-04-24T02:17:44;14;14;
71858;PMS5003;59713;50.866;4.324;2023-04-24T02:18:44;14;14;
71858;PMS5003;59713;50.866;4.324;2023-04-24T02:19:44;17;17;
71858;PMS5003;59713;50.866;4.324;2023-04-24T02:19:44;17;17;
71858;PMS5003;59713;50.866;4.324;2023-04-24T02:20:44;17;17;
71858;PMS5003;59713;50.866;4.324;2023-04-24T02:21:44;17;17;
71858;PMS5003;59713;50.866;4.324;2023-04-24T02:22:44;19;17;
71858;PMS5003;59713;50.866;4.324;2023-04-24T02:23:44;19;17;
71858;PMS5003;59713;50.866;4.324;2023-04-24T02:24:44;19;17;
71858;PMS5003;59713;50.866;4.324;2023-04-24T02:25:44;21;19;
71858;PMS5003;59713;50.866;4.324;2023-04-24T02:26:44;21;19;
71858;PMS5003;59713;50.866;4.324;2023-04-24T02:27:44;21;19;
71858;PMS5003;59713;50.866;4.324;2023-04-24T02:28:44;18;14;
71858;PMS5003;59713;50.866;4.324;2023-04-24T02:28:44;18;14;
71858;PMS5003;59713;50.866;4.324;2023-04-24T02:29:44;18;14;
71858;PMS5003;59713;50.866;4.324;2023-04-24T02:30:45;18;14;
71858;PMS5003;59713;50.866;4.324;2023-04-24T02:31:44;16;15;
71858;PMS5003;59713;50.866;4.324;2023-04-24T02:32:44;16;15;
71858;PMS5003;59713;50.866;4.324;2023-04-24T02:33:44;16;15;
71858;PMS5003;59713;50.866;4.324;2023-04-24T02:34:44;16;16;
71858;PMS5003;59713;50.866;4.324;2023-04-24T02:35:44;16;16;
71858;PMS5003;59713;50.866;4.324;2023-04-24T02:36:44;16;16;
71858;PMS5003;59713;50.866;4.324;2023-04-24T02:37:44;15;14;
71858;PMS5003;59713;50.866;4.324;2023-04-24T02:37:44;15;14;
71858;PMS5003;59713;50.866;4.324;2023-04-24T02:38:44;15;14;
71858;PMS5003;59713;50.866;4.324;2023-04-24T02:39:44;15;14;
71858;PMS5003;59713;50.866;4.324;2023-04-24T02:40:44;18;15;
71858;PMS5003;59713;50.866;4.324;2023-04-24T02:41:44;18;15;
71858;PMS5003;59713;50.866;4.324;2023-04-24T02:42:44;18;15;
71858;PMS5003;59713;50.866;4.324;2023-04-24T02:43:44;19;16;
71858;PMS5003;59713;50.866;4.324;2023-04-24T02:44:44;19;16;
71858;PMS5003;59713;50.866;4.324;2023-04-24T02:45:44;19;16;
71858;PMS5003;59713;50.866;4.324;2023-04-24T02:46:44;17;16;
71858;PMS5003;59713;50.866;4.324;2023-04-24T02:47:44;17;16;
71858;PMS5003;59713;50.866;4.324;2023-04-24T02:47:44;17;16;
71858;PMS5003;59713;50.866;4.324;2023-04-24T02:48:44;17;16;
71858;PMS5003;59713;50.866;4.324;2023-04-24T02:49:44;14;14;
71858;PMS5003;59713;50.866;4.324;2023-04-24T02:50:44;14;14;
71858;PMS5003;59713;50.866;4.324;2023-04-24T02:51:44;14;14;
71858;PMS5003;59713;50.866;4.324;2023-04-24T02:52:45;16;16;
71858;PMS5003;59713;50.866;4.324;2023-04-24T02:53:44;16;16;
71858;PMS5003;59713;50.866;4.324;2023-04-24T02:54:44;16;16;
71858;PMS5003;59713;50.866;4.324;2023-04-24T02:55:44;19;15;
71858;PMS5003;59713;50.866;4.324;2023-04-24T02:56:44;19;15;
71858;PMS5003;59713;50.866;4.324;2023-04-24T02:56:44;19;15;
71858;PMS5003;59713;50.866;4.324;2023-04-24T02:57:44;19;15;
71858;PMS5003;59713;50.866;4.324;2023-04-24T02:58:44;18;18;
71858;PMS5003;59713;50.866;4.324;2023-04-24T02:59:44;18;18;
71858;PMS5003;59713;50.866;4.324;2023-04-24T03:00:44;18;18;
71858;PMS5003;59713;50.866;4.324;2023-04-24T03:01:44;17;15;
71858;PMS5003;59713;50.866;4.324;2023-04-24T03:02:46;17;15;
71858;PMS5003;59713;50.866;4.324;2023-04-24T03:03:44;17;15;
71858;PMS5003;59713;50.866;4.324;2023-04-24T03:04:44;20;18;
71858;PMS5003;59713;50.866;4.324;2023-04-24T03:05:44;20;18;
71858;PMS5003;59713;50.866;4.324;2023-04-24T03:05:44;20;18;
71858;PMS5003;59713;50.866;4.324;2023-04-24T03:06:45;20;18;
71858;PMS5003;59713;50.866;4.324;2023-04-24T03:07:44;14;14;
71858;PMS5003;59713;50.866;4.324;2023-04-24T03:08:44;14;14;
71858;PMS5003;59713;50.866;4.324;2023-04-24T03:09:44;14;14;
71858;PMS5003;59713;50.866;4.324;2023-04-24T03:10:45;16;16;
71858;PMS5003;59713;50.866;4.324;2023-04-24T03:11:44;16;16;
71858;PMS5003;59713;50.866;4.324;2023-04-24T03:12:44;16;16;
71858;PMS5003;59713;50.866;4.324;2023-04-24T03:13:44;17;17;
71858;PMS5003;59713;50.866;4.324;2023-04-24T03:14:44;17;17;
71858;PMS5003;59713;50.866;4.324;2023-04-24T03:14:44;17;17;
71858;PMS5003;59713;50.866;4.324;2023-04-24T03:15:44;17;17;
71858;PMS5003;59713;50.866;4.324;2023-04-24T03:16:44;15;14;
71858;PMS5003;59713;50.866;4.324;2023-04-24T03:17:44;15;14;
71858;PMS5003;59713;50.866;4.324;2023-04-24T03:18:44;15;14;
71858;PMS5003;59713;50.866;4.324;2023-04-24T03:19:45;11;9;
71858;PMS5003;59713;50.866;4.324;2023-04-24T03:20:45;11;9;
71858;PMS5003;59713;50.866;4.324;2023-04-24T03:21:44;11;9;
71858;PMS5003;59713;50.866;4.324;2023-04-24T03:22:44;8;7;
71858;PMS5003;59713;50.866;4.324;2023-04-24T03:23:44;8;7;
71858;PMS5003;59713;50.866;4.324;2023-04-24T03:23:44;8;7;
71858;PMS5003;59713;50.866;4.324;2023-04-24T03:24:44;8;7;
71858;PMS5003;59713;50.866;4.324;2023-04-24T03:25:45;18;15;
71858;PMS5003;59713;50.866;4.324;2023-04-24T03:26:44;18;15;
71858;PMS5003;59713;50.866;4.324;2023-04-24T03:27:44;18;15;
71858;PMS5003;59713;50.866;4.324;2023-04-24T03:28:44;17;17;
71858;PMS5003;59713;50.866;4.324;2023-04-24T03:29:44;17;17;
71858;PMS5003;59713;50.866;4.324;2023-04-24T03:30:44;17;17;
71858;PMS5003;59713;50.866;4.324;2023-04-24T03:31:44;15;13;
71858;PMS5003;59713;50.866;4.324;2023-04-24T03:32:44;15;13;
71858;PMS5003;59713;50.866;4.324;2023-04-24T03:32:44;15;13;
71858;PMS5003;59713;50.866;4.324;2023-04-24T03:33:44;15;13;
71858;PMS5003;59713;50.866;4.324;2023-04-24T03:34:44;10;10;
71858;PMS5003;59713;50.866;4.324;2023-04-24T03:35:44;10;10;
71858;PMS5003;59713;50.866;4.324;2023-04-24T03:36:44;10;10;
71858;PMS5003;59713;50.866;4.324;2023-04-24T03:37:44;11;11;
71858;PMS5003;59713;50.866;4.324;2023-04-24T03:38:44;11;11;
71858;PMS5003;59713;50.866;4.324;2023-04-24T03:39:44;11;11;
71858;PMS5003;59713;50.866;4.324;2023-04-24T03:40:44;14;12;
71858;PMS5003;59713;50.866;4.324;2023-04-24T03:41:44;14;12;
71858;PMS5003;59713;50.866;4.324;2023-04-24T03:42:44;14;12;
71858;PMS5003;59713;50.866;4.324;2023-04-24T03:42:44;14;12;
71858;PMS5003;59713;50.866;4.324;2023-04-24T03:43:44;13;11;
71858;PMS5003;59713;50.866;4.324;2023-04-24T03:44:44;13;11;
71858;PMS5003;59713;50.866;4.324;2023-04-24T03:45:44;13;11;
71858;PMS5003;59713;50.866;4.324;2023-04-24T03:46:44;11;11;
71858;PMS5003;59713;50.866;4.324;2023-04-24T03:47:44;11;11;
71858;PMS5003;59713;50.866;4.324;2023-04-24T03:48:44;11;11;
71858;PMS5003;59713;50.866;4.324;2023-04-24T03:49:45;11;11;
71858;PMS5003;59713;50.866;4.324;2023-04-24T03:50:44;11;11;
71858;PMS5003;59713;50.866;4.324;2023-04-24T03:51:44;11;11;
71858;PMS5003;59713;50.866;4.324;2023-04-24T03:51:44;11;11;
71858;PMS5003;59713;50.866;4.324;2023-04-24T03:52:44;13;11;
71858;PMS5003;59713;50.866;4.324;2023-04-24T03:53:44;13;11;
71858;PMS5003;59713;50.866;4.324;2023-04-24T03:54:44;13;11;
71858;PMS5003;59713;50.866;4.324;2023-04-24T03:55:44;13;13;
71858;PMS5003;59713;50.866;4.324;2023-04-24T03:56:44;13;13;
71858;PMS5003;59713;50.866;4.324;2023-04-24T03:57:44;13;13;
71858;PMS5003;59713;50.866;4.324;2023-04-24T03:58:44;8;8;
71858;PMS5003;59713;50.866;4.324;2023-04-24T03:59:44;8;8;
71858;PMS5003;59713;50.866;4.324;2023-04-24T04:00:44;8;8;
71858;PMS5003;59713;50.866;4.324;2023-04-24T04:01:44;8;7;
71858;PMS5003;59713;50.866;4.324;2023-04-24T04:01:44;8;7;
71858;PMS5003;59713;50.866;4.324;2023-04-24T04:02:44;8;7;
71858;PMS5003;59713;50.866;4.324;2023-04-24T04:03:44;8;7;
71858;PMS5003;59713;50.866;4.324;2023-04-24T04:04:44;13;11;
71858;PMS5003;59713;50.866;4.324;2023-04-24T04:05:44;13;11;
71858;PMS5003;59713;50.866;4.324;2023-04-24T04:06:44;13;11;
71858;PMS5003;59713;50.866;4.324;2023-04-24T04:07:44;9;9;
71858;PMS5003;59713;50.866;4.324;2023-04-24T04:08:44;9;9;
71858;PMS5003;59713;50.866;4.324;2023-04-24T04:09:44;9;9;
71858;PMS5003;59713;50.866;4.324;2023-04-24T04:10:44;10;9;
71858;PMS5003;59713;50.866;4.324;2023-04-24T04:10:44;10;9;
71858;PMS5003;59713;50.866;4.324;2023-04-24T04:11:44;10;9;
71858;PMS5003;59713;50.866;4.324;2023-04-24T04:12:44;10;9;
71858;PMS5003;59713;50.866;4.324;2023-04-24T04:13:44;7;7;
71858;PMS5003;59713;50.866;4.324;2023-04-24T04:14:44;7;7;
71858;PMS5003;59713;50.866;4.324;2023-04-24T04:15:44;7;7;
71858;PMS5003;59713;50.866;4.324;2023-04-24T04:16:44;8;8;
71858;PMS5003;59713;50.866;4.324;2023-04-24T04:17:44;8;8;
71858;PMS5003;59713;50.866;4.324;2023-04-24T04:18:44;8;8;
71858;PMS5003;59713;50.866;4.324;2023-04-24T04:19:44;13;11;
71858;PMS5003;59713;50.866;4.324;2023-04-24T04:20:44;13;11;
71858;PMS5003;59713;50.866;4.324;2023-04-24T04:20:44;13;11;
71858;PMS5003;59713;50.866;4.324;2023-04-24T04:21:44;13;11;
71858;PMS5003;59713;50.866;4.324;2023-04-24T04:22:44;13;9;
71858;PMS5003;59713;50.866;4.324;2023-04-24T04:23:44;13;9;
71858;PMS5003;59713;50.866;4.324;2023-04-24T04:24:44;13;9;
71858;PMS5003;59713;50.866;4.324;2023-04-24T04:25:44;9;9;
71858;PMS5003;59713;50.866;4.324;2023-04-24T04:26:44;9;9;
71858;PMS5003;59713;50.866;4.324;2023-04-24T04:27:45;9;9;
71858;PMS5003;59713;50.866;4.324;2023-04-24T04:28:44;7;6;
71858;PMS5003;59713;50.866;4.324;2023-04-24T04:29:45;7;6;
71858;PMS5003;59713;50.866;4.324;2023-04-24T04:29:45;7;6;
71858;PMS5003;59713;50.866;4.324;2023-04-24T04:30:44;7;6;
71858;PMS5003;59713;50.866;4.324;2023-04-24T04:31:44;8;8;
71858;PMS5003;59713;50.866;4.324;2023-04-24T04:32:44;8;8;
71858;PMS5003;59713;50.866;4.324;2023-04-24T04:33:44;8;8;
71858;PMS5003;59713;50.866;4.324;2023-04-24T04:34:44;9;7;
71858;PMS5003;59713;50.866;4.324;2023-04-24T04:35:44;9;7;
71858;PMS5003;59713;50.866;4.324;2023-04-24T04:36:44;9;7;
71858;PMS5003;59713;50.866;4.324;2023-04-24T04:37:44;6;6;
71858;PMS5003;59713;50.866;4.324;2023-04-24T04:38:44;6;6;
71858;PMS5003;59713;50.866;4.324;2023-04-24T04:38:44;6;6;
71858;PMS5003;59713;50.866;4.324;2023-04-24T04:39:44;6;6;
71858;PMS5003;59713;50.866;4.324;2023-04-24T04:40:45;4;4;
71858;PMS5003;59713;50.866;4.324;2023-04-24T04:41:44;4;4;
71858;PMS5003;59713;50.866;4.324;2023-04-24T04:42:44;4;4;
71858;PMS5003;59713;50.866;4.324;2023-04-24T04:43:44;7;7;
71858;PMS5003;59713;50.866;4.324;2023-04-24T04:44:44;7;7;
71858;PMS5003;59713;50.866;4.324;2023-04-24T04:45:44;7;7;
71858;PMS5003;59713;50.866;4.324;2023-04-24T04:46:44;10;7;
71858;PMS5003;59713;50.866;4.324;2023-04-24T04:47:44;10;7;
71858;PMS5003;59713;50.866;4.324;2023-04-24T04:47:44;10;7;
71858;PMS5003;59713;50.866;4.324;2023-04-24T04:48:44;10;7;
71858;PMS5003;59713;50.866;4.324;2023-04-24T04:49:44;14;13;
71858;PMS5003;59713;50.866;4.324;2023-04-24T04:50:44;14;13;
71858;PMS5003;59713;50.866;4.324;2023-04-24T04:51:44;14;13;
71858;PMS5003;59713;50.866;4.324;2023-04-24T04:52:44;9;9;
71858;PMS5003;59713;50.866;4.324;2023-04-24T04:53:44;9;9;
71858;PMS5003;59713;50.866;4.324;2023-04-24T04:54:44;9;9;
71858;PMS5003;59713;50.866;4.324;2023-04-24T04:55:44;16;12;
71858;PMS5003;59713;50.866;4.324;2023-04-24T04:56:44;16;12;
71858;PMS5003;59713;50.866;4.324;2023-04-24T04:57:44;16;12;
71858;PMS5003;59713;50.866;4.324;2023-04-24T04:57:44;16;12;
71858;PMS5003;59713;50.866;4.324;2023-04-24T04:58:44;19;18;
71858;PMS5003;59713;50.866;4.324;2023-04-24T04:59:44;19;18;
71858;PMS5003;59713;50.866;4.324;2023-04-24T05:00:44;19;18;
71858;PMS5003;59713;50.866;4.324;2023-04-24T05:01:44;15;12;
71858;PMS5003;59713;50.866;4.324;2023-04-24T05:02:44;15;12;
71858;PMS5003;59713;50.866;4.324;2023-04-24T05:03:44;15;12;
71858;PMS5003;59713;50.866;4.324;2023-04-24T05:04:44;15;15;
71858;PMS5003;59713;50.866;4.324;2023-04-24T05:05:44;15;15;
71858;PMS5003;59713;50.866;4.324;2023-04-24T05:06:44;15;15;
71858;PMS5003;59713;50.866;4.324;2023-04-24T05:06:44;15;15;
71858;PMS5003;59713;50.866;4.324;2023-04-24T05:07:44;14;12;
71858;PMS5003;59713;50.866;4.324;2023-04-24T05:08:45;14;12;
71858;PMS5003;59713;50.866;4.324;2023-04-24T05:09:44;14;12;
71858;PMS5003;59713;50.866;4.324;2023-04-24T05:10:44;15;14;
71858;PMS5003;59713;50.866;4.324;2023-04-24T05:11:44;15;14;
71858;PMS5003;59713;50.866;4.324;2023-04-24T05:12:44;15;14;
71858;PMS5003;59713;50.866;4.324;2023-04-24T05:13:44;14;14;
71858;PMS5003;59713;50.866;4.324;2023-04-24T05:14:44;14;14;
71858;PMS5003;59713;50.866;4.324;2023-04-24T05:15:44;14;14;
71858;PMS5003;59713;50.866;4.324;2023-04-24T05:15:44;14;14;
71858;PMS5003;59713;50.866;4.324;2023-04-24T05:16:44;16;15;
71858;PMS5003;59713;50.866;4.324;2023-04-24T05:17:44;16;15;
71858;PMS5003;59713;50.866;4.324;2023-04-24T05:18:44;16;15;
71858;PMS5003;59713;50.866;4.324;2023-04-24T05:19:44;17;17;
71858;PMS5003;59713;50.866;4.324;2023-04-24T05:20:44;17;17;
71858;PMS5003;59713;50.866;4.324;2023-04-24T05:21:44;17;17;
71858;PMS5003;59713;50.866;4.324;2023-04-24T05:22:44;18;14;
71858;PMS5003;59713;50.866;4.324;2023-04-24T05:23:44;18;14;
71858;PMS5003;59713;50.866;4.324;2023-04-24T05:24:44;18;14;
71858;PMS5003;59713;50.866;4.324;2023-04-24T05:24:44;18;14;
71858;PMS5003;59713;50.866;4.324;2023-04-24T05:25:44;16;13;
71858;PMS5003;59713;50.866;4.324;2023-04-24T05:26:44;16;13;
71858;PMS5003;59713;50.866;4.324;2023-04-24T05:27:44;16;13;
71858;PMS5003;59713;50.866;4.324;2023-04-24T05:28:44;19;16;
71858;PMS5003;59713;50.866;4.324;2023-04-24T05:29:45;19;16;
71858;PMS5003;59713;50.866;4.324;2023-04-24T05:30:44;19;16;
71858;PMS5003;59713;50.866;4.324;2023-04-24T05:31:44;17;12;
71858;PMS5003;59713;50.866;4.324;2023-04-24T05:32:44;17;12;
71858;PMS5003;59713;50.866;4.324;2023-04-24T05:33:44;17;12;
71858;PMS5003;59713;50.866;4.324;2023-04-24T05:33:44;17;12;
71858;PMS5003;59713;50.866;4.324;2023-04-24T05:34:44;16;16;
71858;PMS5003;59713;50.866;4.324;2023-04-24T05:35:44;16;16;
71858;PMS5003;59713;50.866;4.324;2023-04-24T05:36:44;16;16;
71858;PMS5003;59713;50.866;4.324;2023-04-24T05:37:44;17;16;
71858;PMS5003;59713;50.866;4.324;2023-04-24T05:38:45;17;16;
71858;PMS5003;59713;50.866;4.324;2023-04-24T05:39:44;17;16;
71858;PMS5003;59713;50.866;4.324;2023-04-24T05:40:44;18;14;
71858;PMS5003;59713;50.866;4.324;2023-04-24T05:41:44;18;14;
71858;PMS5003;59713;50.866;4.324;2023-04-24T05:42:44;18;14;
71858;PMS5003;59713;50.866;4.324;2023-04-24T05:42:44;18;14;
71858;PMS5003;59713;50.866;4.324;2023-04-24T05:43:44;22;16;
71858;PMS5003;59713;50.866;4.324;2023-04-24T05:44:44;22;16;
71858;PMS5003;59713;50.866;4.324;2023-04-24T05:45:44;22;16;
71858;PMS5003;59713;50.866;4.324;2023-04-24T05:46:44;17;16;
71858;PMS5003;59713;50.866;4.324;2023-04-24T05:47:44;17;16;
71858;PMS5003;59713;50.866;4.324;2023-04-24T05:48:44;17;16;
71858;PMS5003;59713;50.866;4.324;2023-04-24T05:49:46;17;14;
71858;PMS5003;59713;50.866;4.324;2023-04-24T05:50:44;17;14;
71858;PMS5003;59713;50.866;4.324;2023-04-24T05:51:44;17;14;
71858;PMS5003;59713;50.866;4.324;2023-04-24T05:52:44;16;15;
71858;PMS5003;59713;50.866;4.324;2023-04-24T05:52:44;16;15;
71858;PMS5003;59713;50.866;4.324;2023-04-24T05:53:44;16;15;
71858;PMS5003;59713;50.866;4.324;2023-04-24T05:54:44;16;15;
71858;PMS5003;59713;50.866;4.324;2023-04-24T05:55:44;17;15;
71858;PMS5003;59713;50.866;4.324;2023-04-24T05:56:44;17;15;
71858;PMS5003;59713;50.866;4.324;2023-04-24T05:57:44;17;15;
71858;PMS5003;59713;50.866;4.324;2023-04-24T05:58:44;16;14;
71858;PMS5003;59713;50.866;4.324;2023-04-24T05:59:44;16;14;
71858;PMS5003;59713;50.866;4.324;2023-04-24T06:00:45;16;14;